sensor_id;sensor_type;location;lat;lon;timestamp;temperature;humidity
9810;DHT22;4944;52.514;13.192;2022-08-01T00:01:30;23.40;99.90
9810;DHT22;4944;52.514;13.192;2022-08-01T00:03:57;23.50;99.90
9810;DHT22;4944;52.514;13.192;2022-08-01T00:06:27;23.50;99.90
9810;DHT22;4944;52.514;13.192;2022-08-01T00:08:54;23.60;99.90
9810;DHT22;4944;52.514;13.192;2022-08-01T00:11:38;23.60;99.90
9810;DHT22;4944;52.514;13.192;2022-08-01T00:14:07;23.60;99.90
9810;DHT22;4944;52.514;13.192;2022-08-01T00:16:34;23.60;99.90
9810;DHT22;4944;52.514;13.192;2022-08-01T00:19:01;23.60;99.90
9810;DHT22;4944;52.514;13.192;2022-08-01T00:21:37;23.50;99.90
9810;DHT22;4944;52.514;13.192;2022-08-01T00:24:04;23.50;99.90
9810;DHT22;4944;52.514;13.192;2022-08-01T00:26:31;23.50;99.90
9810;DHT22;4944;52.514;13.192;2022-08-01T00:28:59;23.40;99.90
9810;DHT22;4944;52.514;13.192;2022-08-01T00:31:26;23.40;99.90
9810;DHT22;4944;52.514;13.192;2022-08-01T00:33:53;23.40;99.90
9810;DHT22;4944;52.514;13.192;2022-08-01T00:36:22;23.40;99.90
9810;DHT22;4944;52.514;13.192;2022-08-01T00:38:49;23.30;99.90
9810;DHT22;4944;52.514;13.192;2022-08-01T00:41:22;23.20;99.90
9810;DHT22;4944;52.514;13.192;2022-08-01T00:43:49;23.10;99.90
9810;DHT22;4944;52.514;13.192;2022-08-01T00:46:29;23.10;99.90
9810;DHT22;4944;52.514;13.192;2022-08-01T00:48:57;23.00;99.90
9810;DHT22;4944;52.514;13.192;2022-08-01T00:51:27;23.10;99.90
9810;DHT22;4944;52.514;13.192;2022-08-01T00:53:54;23.10;99.90
9810;DHT22;4944;52.514;13.192;2022-08-01T00:56:25;23.20;99.90
9810;DHT22;4944;52.514;13.192;2022-08-01T00:58:54;23.20;99.90
9810;DHT22;4944;52.514;13.192;2022-08-01T01:01:22;23.10;99.90
9810;DHT22;4944;52.514;13.192;2022-08-01T01:03:51;23.10;99.90
9810;DHT22;4944;52.514;13.192;2022-08-01T01:06:26;23.10;99.90
9810;DHT22;4944;52.514;13.192;2022-08-01T01:09:02;23.10;99.90
9810;DHT22;4944;52.514;13.192;2022-08-01T01:11:39;23.10;99.90
9810;DHT22;4944;52.514;13.192;2022-08-01T01:14:16;22.90;99.90
9810;DHT22;4944;52.514;13.192;2022-08-01T01:16:45;22.70;99.90
9810;DHT22;4944;52.514;13.192;2022-08-01T01:19:21;22.70;99.90
9810;DHT22;4944;52.514;13.192;2022-08-01T01:22:13;22.60;99.90
9810;DHT22;4944;52.514;13.192;2022-08-01T01:24:50;22.40;99.90
9810;DHT22;4944;52.514;13.192;2022-08-01T01:27:27;22.20;99.90
9810;DHT22;4944;52.514;13.192;2022-08-01T01:29:57;22.10;99.90
9810;DHT22;4944;52.514;13.192;2022-08-01T01:32:28;22.10;99.90
9810;DHT22;4944;52.514;13.192;2022-08-01T01:34:59;22.10;99.90
9810;DHT22;4944;52.514;13.192;2022-08-01T01:37:27;22.00;99.90
9810;DHT22;4944;52.514;13.192;2022-08-01T01:39:55;22.00;99.90
9810;DHT22;4944;52.514;13.192;2022-08-01T01:42:25;21.90;99.90
9810;DHT22;4944;52.514;13.192;2022-08-01T01:44:55;22.00;99.90
9810;DHT22;4944;52.514;13.192;2022-08-01T01:47:23;22.10;99.90
9810;DHT22;4944;52.514;13.192;2022-08-01T01:49:52;22.10;99.90
9810;DHT22;4944;52.514;13.192;2022-08-01T01:52:21;21.90;99.90
9810;DHT22;4944;52.514;13.192;2022-08-01T01:54:50;21.80;99.90
9810;DHT22;4944;52.514;13.192;2022-08-01T01:57:18;21.80;99.90
9810;DHT22;4944;52.514;13.192;2022-08-01T01:59:46;21.70;99.90
9810;DHT22;4944;52.514;13.192;2022-08-01T02:02:16;21.50;99.90
9810;DHT22;4944;52.514;13.192;2022-08-01T02:04:45;21.30;99.90
9810;DHT22;4944;52.514;13.192;2022-08-01T02:07:14;21.40;99.90
9810;DHT22;4944;52.514;13.192;2022-08-01T02:09:43;21.30;99.90
9810;DHT22;4944;52.514;13.192;2022-08-01T02:12:12;21.40;99.90
9810;DHT22;4944;52.514;13.192;2022-08-01T02:14:41;21.40;99.90
9810;DHT22;4944;52.514;13.192;2022-08-01T02:17:11;21.40;99.90
9810;DHT22;4944;52.514;13.192;2022-08-01T02:19:40;21.40;99.90
9810;DHT22;4944;52.514;13.192;2022-08-01T02:22:10;21.40;99.90
9810;DHT22;4944;52.514;13.192;2022-08-01T02:24:42;21.60;99.90
9810;DHT22;4944;52.514;13.192;2022-08-01T02:27:12;21.60;99.90
9810;DHT22;4944;52.514;13.192;2022-08-01T02:29:43;21.50;99.90
9810;DHT22;4944;52.514;13.192;2022-08-01T02:32:15;21.60;99.90
9810;DHT22;4944;52.514;13.192;2022-08-01T02:34:46;21.70;99.90
9810;DHT22;4944;52.514;13.192;2022-08-01T02:37:16;21.50;99.90
9810;DHT22;4944;52.514;13.192;2022-08-01T02:39:46;21.30;99.90
9810;DHT22;4944;52.514;13.192;2022-08-01T02:42:15;21.20;99.90
9810;DHT22;4944;52.514;13.192;2022-08-01T02:44:43;21.20;99.90
9810;DHT22;4944;52.514;13.192;2022-08-01T02:47:12;21.20;99.90
9810;DHT22;4944;52.514;13.192;2022-08-01T02:49:42;21.30;99.90
9810;DHT22;4944;52.514;13.192;2022-08-01T02:52:14;21.30;99.90
9810;DHT22;4944;52.514;13.192;2022-08-01T02:54:42;21.30;99.90
9810;DHT22;4944;52.514;13.192;2022-08-01T02:57:10;21.10;99.90
9810;DHT22;4944;52.514;13.192;2022-08-01T02:59:39;21.10;99.90
9810;DHT22;4944;52.514;13.192;2022-08-01T03:02:07;21.00;99.90
9810;DHT22;4944;52.514;13.192;2022-08-01T03:04:36;21.00;99.90
9810;DHT22;4944;52.514;13.192;2022-08-01T03:07:05;21.00;99.90
9810;DHT22;4944;52.514;13.192;2022-08-01T03:09:37;21.10;99.90
9810;DHT22;4944;52.514;13.192;2022-08-01T03:12:08;21.10;99.90
9810;DHT22;4944;52.514;13.192;2022-08-01T03:14:40;21.20;99.90
9810;DHT22;4944;52.514;13.192;2022-08-01T03:17:08;21.20;99.90
9810;DHT22;4944;52.514;13.192;2022-08-01T03:19:35;21.20;99.90
9810;DHT22;4944;52.514;13.192;2022-08-01T03:22:05;21.10;99.90
9810;DHT22;4944;52.514;13.192;2022-08-01T03:24:35;21.20;99.90
9810;DHT22;4944;52.514;13.192;2022-08-01T03:27:04;21.10;99.90
9810;DHT22;4944;52.514;13.192;2022-08-01T03:29:33;21.00;99.90
9810;DHT22;4944;52.514;13.192;2022-08-01T03:32:01;20.90;99.90
9810;DHT22;4944;52.514;13.192;2022-08-01T03:34:28;20.80;99.90
9810;DHT22;4944;52.514;13.192;2022-08-01T03:36:58;20.90;99.90
9810;DHT22;4944;52.514;13.192;2022-08-01T03:39:30;20.90;99.90
9810;DHT22;4944;52.514;13.192;2022-08-01T03:42:02;20.90;99.90
9810;DHT22;4944;52.514;13.192;2022-08-01T03:44:33;20.80;99.90
9810;DHT22;4944;52.514;13.192;2022-08-01T03:47:06;20.90;99.90
9810;DHT22;4944;52.514;13.192;2022-08-01T03:49:37;20.70;99.90
9810;DHT22;4944;52.514;13.192;2022-08-01T03:52:07;20.60;99.90
9810;DHT22;4944;52.514;13.192;2022-08-01T03:54:37;20.60;99.90
9810;DHT22;4944;52.514;13.192;2022-08-01T03:57:07;20.70;99.90
9810;DHT22;4944;52.514;13.192;2022-08-01T03:59:35;20.80;99.90
9810;DHT22;4944;52.514;13.192;2022-08-01T04:02:04;20.70;99.90
9810;DHT22;4944;52.514;13.192;2022-08-01T04:04:32;20.80;99.90
9810;DHT22;4944;52.514;13.192;2022-08-01T04:07:00;21.00;99.90
9810;DHT22;4944;52.514;13.192;2022-08-01T04:09:29;21.10;99.90
9810;DHT22;4944;52.514;13.192;2022-08-01T04:11:57;21.30;99.90
9810;DHT22;4944;52.514;13.192;2022-08-01T04:14:26;21.10;99.90
9810;DHT22;4944;52.514;13.192;2022-08-01T04:16:53;20.90;99.90
9810;DHT22;4944;52.514;13.192;2022-08-01T04:19:20;20.80;99.90
9810;DHT22;4944;52.514;13.192;2022-08-01T04:21:47;20.70;99.90
9810;DHT22;4944;52.514;13.192;2022-08-01T04:24:17;20.60;99.90
9810;DHT22;4944;52.514;13.192;2022-08-01T04:26:46;20.40;99.90
9810;DHT22;4944;52.514;13.192;2022-08-01T04:29:15;20.50;99.90
9810;DHT22;4944;52.514;13.192;2022-08-01T04:31:46;20.30;99.90
9810;DHT22;4944;52.514;13.192;2022-08-01T04:34:15;20.30;99.90
9810;DHT22;4944;52.514;13.192;2022-08-01T04:36:44;20.20;99.90
9810;DHT22;4944;52.514;13.192;2022-08-01T04:39:12;20.20;99.90
9810;DHT22;4944;52.514;13.192;2022-08-01T04:41:40;20.30;99.90
9810;DHT22;4944;52.514;13.192;2022-08-01T04:44:08;20.40;99.90
9810;DHT22;4944;52.514;13.192;2022-08-01T04:46:35;20.40;99.90
9810;DHT22;4944;52.514;13.192;2022-08-01T04:49:05;20.40;99.90
9810;DHT22;4944;52.514;13.192;2022-08-01T04:51:32;20.40;99.90
9810;DHT22;4944;52.514;13.192;2022-08-01T04:53:59;20.30;99.90
9810;DHT22;4944;52.514;13.192;2022-08-01T04:56:26;20.30;99.90
9810;DHT22;4944;52.514;13.192;2022-08-01T04:58:54;20.40;99.90
9810;DHT22;4944;52.514;13.192;2022-08-01T05:01:35;20.30;99.90
9810;DHT22;4944;52.514;13.192;2022-08-01T05:04:02;20.40;99.90
9810;DHT22;4944;52.514;13.192;2022-08-01T05:06:30;20.30;99.90
9810;DHT22;4944;52.514;13.192;2022-08-01T05:08:56;20.40;99.90
9810;DHT22;4944;52.514;13.192;2022-08-01T05:11:23;20.50;99.90
9810;DHT22;4944;52.514;13.192;2022-08-01T05:13:50;20.60;99.90
9810;DHT22;4944;52.514;13.192;2022-08-01T05:16:24;20.60;99.90
9810;DHT22;4944;52.514;13.192;2022-08-01T05:18:50;20.70;99.90
9810;DHT22;4944;52.514;13.192;2022-08-01T05:21:24;20.70;99.90
9810;DHT22;4944;52.514;13.192;2022-08-01T05:23:53;20.80;99.90
9810;DHT22;4944;52.514;13.192;2022-08-01T05:26:23;20.70;99.90
9810;DHT22;4944;52.514;13.192;2022-08-01T05:28:49;20.60;99.90
9810;DHT22;4944;52.514;13.192;2022-08-01T05:31:25;20.70;99.90
9810;DHT22;4944;52.514;13.192;2022-08-01T05:33:52;20.70;99.90
9810;DHT22;4944;52.514;13.192;2022-08-01T05:36:27;20.70;99.90
9810;DHT22;4944;52.514;13.192;2022-08-01T05:38:55;20.80;99.90
9810;DHT22;4944;52.514;13.192;2022-08-01T05:41:22;20.80;99.90
9810;DHT22;4944;52.514;13.192;2022-08-01T05:43:49;20.80;99.90
9810;DHT22;4944;52.514;13.192;2022-08-01T05:46:25;20.80;99.90
9810;DHT22;4944;52.514;13.192;2022-08-01T05:48:51;20.90;99.90
9810;DHT22;4944;52.514;13.192;2022-08-01T05:51:22;20.80;99.90
9810;DHT22;4944;52.514;13.192;2022-08-01T05:53:49;20.80;99.90
9810;DHT22;4944;52.514;13.192;2022-08-01T05:56:28;20.80;99.90
9810;DHT22;4944;52.514;13.192;2022-08-01T05:58:55;20.70;99.90
9810;DHT22;4944;52.514;13.192;2022-08-01T06:01:22;20.60;99.90
9810;DHT22;4944;52.514;13.192;2022-08-01T06:03:49;20.60;99.90
9810;DHT22;4944;52.514;13.192;2022-08-01T06:06:19;20.70;99.90
9810;DHT22;4944;52.514;13.192;2022-08-01T06:08:45;20.60;99.90
9810;DHT22;4944;52.514;13.192;2022-08-01T06:11:21;20.60;99.90
9810;DHT22;4944;52.514;13.192;2022-08-01T06:13:49;20.50;99.90
9810;DHT22;4944;52.514;13.192;2022-08-01T06:16:25;20.30;99.90
9810;DHT22;4944;52.514;13.192;2022-08-01T06:18:52;20.40;99.90
9810;DHT22;4944;52.514;13.192;2022-08-01T06:21:25;20.50;99.90
9810;DHT22;4944;52.514;13.192;2022-08-01T06:23:52;20.60;99.90
9810;DHT22;4944;52.514;13.192;2022-08-01T06:26:25;20.70;99.90
9810;DHT22;4944;52.514;13.192;2022-08-01T06:28:53;20.70;99.90
9810;DHT22;4944;52.514;13.192;2022-08-01T06:31:23;20.70;99.90
9810;DHT22;4944;52.514;13.192;2022-08-01T06:33:50;20.70;99.90
9810;DHT22;4944;52.514;13.192;2022-08-01T06:36:24;20.70;99.90
9810;DHT22;4944;52.514;13.192;2022-08-01T06:38:51;20.70;99.90
9810;DHT22;4944;52.514;13.192;2022-08-01T06:41:19;20.80;99.90
9810;DHT22;4944;52.514;13.192;2022-08-01T06:43:46;20.80;99.90
9810;DHT22;4944;52.514;13.192;2022-08-01T06:46:36;20.80;99.90
9810;DHT22;4944;52.514;13.192;2022-08-01T06:49:03;20.80;99.90
9810;DHT22;4944;52.514;13.192;2022-08-01T06:51:37;20.90;99.90
9810;DHT22;4944;52.514;13.192;2022-08-01T06:54:04;20.90;99.90
9810;DHT22;4944;52.514;13.192;2022-08-01T06:56:31;21.00;99.90
9810;DHT22;4944;52.514;13.192;2022-08-01T06:59:00;21.00;99.90
9810;DHT22;4944;52.514;13.192;2022-08-01T07:01:33;21.00;99.90
9810;DHT22;4944;52.514;13.192;2022-08-01T07:04:02;20.90;99.90
9810;DHT22;4944;52.514;13.192;2022-08-01T07:06:33;20.90;99.90
9810;DHT22;4944;52.514;13.192;2022-08-01T07:08:59;21.00;99.90
9810;DHT22;4944;52.514;13.192;2022-08-01T07:11:27;21.10;99.90
9810;DHT22;4944;52.514;13.192;2022-08-01T07:13:54;21.20;99.90
9810;DHT22;4944;52.514;13.192;2022-08-01T07:16:25;21.30;99.90
9810;DHT22;4944;52.514;13.192;2022-08-01T07:18:52;21.30;99.90
9810;DHT22;4944;52.514;13.192;2022-08-01T07:21:23;21.30;99.90
9810;DHT22;4944;52.514;13.192;2022-08-01T07:23:49;21.40;99.90
9810;DHT22;4944;52.514;13.192;2022-08-01T07:26:22;21.50;99.90
9810;DHT22;4944;52.514;13.192;2022-08-01T07:28:49;21.50;99.90
9810;DHT22;4944;52.514;13.192;2022-08-01T07:31:16;21.60;99.90
9810;DHT22;4944;52.514;13.192;2022-08-01T07:33:43;21.60;99.90
9810;DHT22;4944;52.514;13.192;2022-08-01T07:36:25;21.70;99.90
9810;DHT22;4944;52.514;13.192;2022-08-01T07:38:52;21.60;99.90
9810;DHT22;4944;52.514;13.192;2022-08-01T07:41:24;21.50;99.90
9810;DHT22;4944;52.514;13.192;2022-08-01T07:43:51;21.50;99.90
9810;DHT22;4944;52.514;13.192;2022-08-01T07:46:21;21.60;99.90
9810;DHT22;4944;52.514;13.192;2022-08-01T07:48:48;21.50;99.90
9810;DHT22;4944;52.514;13.192;2022-08-01T07:51:25;21.30;99.90
9810;DHT22;4944;52.514;13.192;2022-08-01T07:53:52;21.20;99.90
9810;DHT22;4944;52.514;13.192;2022-08-01T07:56:25;21.10;99.90
9810;DHT22;4944;52.514;13.192;2022-08-01T07:58:51;21.10;99.90
9810;DHT22;4944;52.514;13.192;2022-08-01T08:01:18;21.10;99.90
9810;DHT22;4944;52.514;13.192;2022-08-01T08:03:45;21.10;99.90
9810;DHT22;4944;52.514;13.192;2022-08-01T08:06:21;21.10;99.90
9810;DHT22;4944;52.514;13.192;2022-08-01T08:08:49;21.20;99.90
9810;DHT22;4944;52.514;13.192;2022-08-01T08:11:22;21.20;99.90
9810;DHT22;4944;52.514;13.192;2022-08-01T08:13:49;21.40;99.90
9810;DHT22;4944;52.514;13.192;2022-08-01T08:16:18;21.60;99.90
9810;DHT22;4944;52.514;13.192;2022-08-01T08:18:46;21.90;99.90
9810;DHT22;4944;52.514;13.192;2022-08-01T08:21:31;22.10;99.90
9810;DHT22;4944;52.514;13.192;2022-08-01T08:23:59;22.30;99.90
9810;DHT22;4944;52.514;13.192;2022-08-01T08:26:43;22.40;99.90
9810;DHT22;4944;52.514;13.192;2022-08-01T08:29:10;22.50;99.90
9810;DHT22;4944;52.514;13.192;2022-08-01T08:31:37;22.60;99.90
9810;DHT22;4944;52.514;13.192;2022-08-01T08:34:03;22.70;99.90
9810;DHT22;4944;52.514;13.192;2022-08-01T08:36:30;22.70;99.90
9810;DHT22;4944;52.514;13.192;2022-08-01T08:38:59;22.80;99.90
9810;DHT22;4944;52.514;13.192;2022-08-01T08:41:28;22.90;99.90
9810;DHT22;4944;52.514;13.192;2022-08-01T08:43:55;22.80;99.90
9810;DHT22;4944;52.514;13.192;2022-08-01T08:46:31;22.80;99.90
9810;DHT22;4944;52.514;13.192;2022-08-01T08:48:59;22.60;99.90
9810;DHT22;4944;52.514;13.192;2022-08-01T08:51:27;22.40;99.90
9810;DHT22;4944;52.514;13.192;2022-08-01T08:53:59;22.30;99.90
9810;DHT22;4944;52.514;13.192;2022-08-01T08:56:28;22.30;99.90
9810;DHT22;4944;52.514;13.192;2022-08-01T08:59:00;22.30;99.90
9810;DHT22;4944;52.514;13.192;2022-08-01T09:01:30;22.20;99.90
9810;DHT22;4944;52.514;13.192;2022-08-01T09:03:58;22.10;99.90
9810;DHT22;4944;52.514;13.192;2022-08-01T09:06:25;22.00;99.90
9810;DHT22;4944;52.514;13.192;2022-08-01T09:08:53;22.10;99.90
9810;DHT22;4944;52.514;13.192;2022-08-01T09:14:47;22.10;99.90
9810;DHT22;4944;52.514;13.192;2022-08-01T09:17:15;22.30;99.90
9810;DHT22;4944;52.514;13.192;2022-08-01T09:19:43;22.30;99.90
9810;DHT22;4944;52.514;13.192;2022-08-01T09:22:12;22.40;99.90
9810;DHT22;4944;52.514;13.192;2022-08-01T09:24:40;22.40;99.90
9810;DHT22;4944;52.514;13.192;2022-08-01T09:27:17;22.40;99.90
9810;DHT22;4944;52.514;13.192;2022-08-01T09:29:46;22.40;99.90
9810;DHT22;4944;52.514;13.192;2022-08-01T09:32:12;22.50;99.90
9810;DHT22;4944;52.514;13.192;2022-08-01T09:34:39;22.30;99.90
9810;DHT22;4944;52.514;13.192;2022-08-01T09:37:06;22.10;99.90
9810;DHT22;4944;52.514;13.192;2022-08-01T09:39:34;22.10;99.90
9810;DHT22;4944;52.514;13.192;2022-08-01T09:42:21;22.10;99.90
9810;DHT22;4944;52.514;13.192;2022-08-01T09:44:50;22.00;99.90
9810;DHT22;4944;52.514;13.192;2022-08-01T09:47:18;22.00;99.90
9810;DHT22;4944;52.514;13.192;2022-08-01T09:49:53;22.10;99.90
9810;DHT22;4944;52.514;13.192;2022-08-01T09:52:21;22.20;99.90
9810;DHT22;4944;52.514;13.192;2022-08-01T09:54:52;22.20;99.90
9810;DHT22;4944;52.514;13.192;2022-08-01T09:57:20;22.20;99.90
9810;DHT22;4944;52.514;13.192;2022-08-01T09:59:49;22.10;99.90
9810;DHT22;4944;52.514;13.192;2022-08-01T10:02:27;22.00;99.90
9810;DHT22;4944;52.514;13.192;2022-08-01T10:04:54;22.00;99.90
9810;DHT22;4944;52.514;13.192;2022-08-01T10:07:21;22.00;99.90
9810;DHT22;4944;52.514;13.192;2022-08-01T10:09:48;22.00;99.90
9810;DHT22;4944;52.514;13.192;2022-08-01T10:12:17;22.00;99.90
9810;DHT22;4944;52.514;13.192;2022-08-01T10:14:45;22.20;99.90
9810;DHT22;4944;52.514;13.192;2022-08-01T10:17:15;22.10;99.90
9810;DHT22;4944;52.514;13.192;2022-08-01T10:19:43;22.20;99.90
9810;DHT22;4944;52.514;13.192;2022-08-01T10:22:11;22.20;99.90
9810;DHT22;4944;52.514;13.192;2022-08-01T10:24:42;22.30;99.90
9810;DHT22;4944;52.514;13.192;2022-08-01T10:27:11;22.30;99.90
9810;DHT22;4944;52.514;13.192;2022-08-01T10:29:42;22.40;99.90
9810;DHT22;4944;52.514;13.192;2022-08-01T10:35:31;22.60;99.90
9810;DHT22;4944;52.514;13.192;2022-08-01T10:37:58;22.60;99.90
9810;DHT22;4944;52.514;13.192;2022-08-01T10:40:26;22.60;99.90
9810;DHT22;4944;52.514;13.192;2022-08-01T10:42:53;22.70;99.90
9810;DHT22;4944;52.514;13.192;2022-08-01T10:45:20;22.60;99.90
9810;DHT22;4944;52.514;13.192;2022-08-01T10:47:53;22.60;99.90
9810;DHT22;4944;52.514;13.192;2022-08-01T10:50:29;22.50;99.90
9810;DHT22;4944;52.514;13.192;2022-08-01T10:53:09;22.60;99.90
9810;DHT22;4944;52.514;13.192;2022-08-01T10:55:51;22.70;99.90
9810;DHT22;4944;52.514;13.192;2022-08-01T10:58:23;22.80;99.90
9810;DHT22;4944;52.514;13.192;2022-08-01T11:01:19;22.90;99.90
9810;DHT22;4944;52.514;13.192;2022-08-01T11:04:03;22.80;99.90
9810;DHT22;4944;52.514;13.192;2022-08-01T11:09:58;22.60;99.90
9810;DHT22;4944;52.514;13.192;2022-08-01T11:12:38;22.60;99.90
9810;DHT22;4944;52.514;13.192;2022-08-01T11:15:22;22.60;99.90
9810;DHT22;4944;52.514;13.192;2022-08-01T11:17:53;22.50;99.90
9810;DHT22;4944;52.514;13.192;2022-08-01T11:20:23;22.40;99.90
9810;DHT22;4944;52.514;13.192;2022-08-01T11:23:24;22.50;99.90
9810;DHT22;4944;52.514;13.192;2022-08-01T11:29:24;22.70;99.90
9810;DHT22;4944;52.514;13.192;2022-08-01T11:32:28;22.80;99.90
9810;DHT22;4944;52.514;13.192;2022-08-01T11:34:56;22.80;99.90
9810;DHT22;4944;52.514;13.192;2022-08-01T11:37:24;22.80;99.90
9810;DHT22;4944;52.514;13.192;2022-08-01T11:40:16;22.90;99.90
9810;DHT22;4944;52.514;13.192;2022-08-01T11:42:43;22.90;99.90
9810;DHT22;4944;52.514;13.192;2022-08-01T11:45:11;23.10;99.90
9810;DHT22;4944;52.514;13.192;2022-08-01T11:47:46;23.20;99.90
9810;DHT22;4944;52.514;13.192;2022-08-01T11:50:33;23.30;99.90
9810;DHT22;4944;52.514;13.192;2022-08-01T11:53:01;23.30;99.90
9810;DHT22;4944;52.514;13.192;2022-08-01T11:55:28;23.40;99.90
9810;DHT22;4944;52.514;13.192;2022-08-01T11:57:59;23.40;99.90
9810;DHT22;4944;52.514;13.192;2022-08-01T12:00:28;23.50;99.90
9810;DHT22;4944;52.514;13.192;2022-08-01T12:02:57;23.60;99.90
9810;DHT22;4944;52.514;13.192;2022-08-01T12:05:25;23.60;99.90
9810;DHT22;4944;52.514;13.192;2022-08-01T12:08:11;23.60;99.90
9810;DHT22;4944;52.514;13.192;2022-08-01T12:10:38;23.40;99.90
9810;DHT22;4944;52.514;13.192;2022-08-01T12:13:06;23.60;99.90
9810;DHT22;4944;52.514;13.192;2022-08-01T12:15:35;23.70;99.90
9810;DHT22;4944;52.514;13.192;2022-08-01T12:18:04;23.90;99.90
9810;DHT22;4944;52.514;13.192;2022-08-01T12:20:32;24.10;99.90
9810;DHT22;4944;52.514;13.192;2022-08-01T12:23:01;24.20;99.90
9810;DHT22;4944;52.514;13.192;2022-08-01T12:25:28;24.40;99.90
9810;DHT22;4944;52.514;13.192;2022-08-01T12:27:59;24.60;99.90
9810;DHT22;4944;52.514;13.192;2022-08-01T12:30:26;24.80;99.90
9810;DHT22;4944;52.514;13.192;2022-08-01T12:32:57;24.90;99.90
9810;DHT22;4944;52.514;13.192;2022-08-01T12:35:26;25.10;99.90
9810;DHT22;4944;52.514;13.192;2022-08-01T12:37:55;25.20;99.90
9810;DHT22;4944;52.514;13.192;2022-08-01T12:40:24;25.20;99.90
9810;DHT22;4944;52.514;13.192;2022-08-01T12:43:07;25.20;99.90
9810;DHT22;4944;52.514;13.192;2022-08-01T12:45:37;25.10;99.90
9810;DHT22;4944;52.514;13.192;2022-08-01T12:48:10;25.10;99.90
9810;DHT22;4944;52.514;13.192;2022-08-01T12:54:00;24.70;99.90
9810;DHT22;4944;52.514;13.192;2022-08-01T12:56:34;24.40;99.90
9810;DHT22;4944;52.514;13.192;2022-08-01T12:59:01;24.40;99.90
9810;DHT22;4944;52.514;13.192;2022-08-01T13:01:28;24.10;99.90
9810;DHT22;4944;52.514;13.192;2022-08-01T13:04:00;24.10;99.90
9810;DHT22;4944;52.514;13.192;2022-08-01T13:06:29;24.10;99.90
9810;DHT22;4944;52.514;13.192;2022-08-01T13:09:04;24.10;99.90
9810;DHT22;4944;52.514;13.192;2022-08-01T13:11:31;24.10;99.90
9810;DHT22;4944;52.514;13.192;2022-08-01T13:13:58;24.20;99.90
9810;DHT22;4944;52.514;13.192;2022-08-01T13:16:26;24.20;99.90
9810;DHT22;4944;52.514;13.192;2022-08-01T13:18:54;24.40;99.90
9810;DHT22;4944;52.514;13.192;2022-08-01T13:21:24;24.60;99.90
9810;DHT22;4944;52.514;13.192;2022-08-01T13:24:02;24.80;99.90
9810;DHT22;4944;52.514;13.192;2022-08-01T13:26:40;24.90;99.90
9810;DHT22;4944;52.514;13.192;2022-08-01T13:29:08;25.10;99.90
9810;DHT22;4944;52.514;13.192;2022-08-01T13:31:37;25.20;99.90
9810;DHT22;4944;52.514;13.192;2022-08-01T13:34:04;24.90;99.90
9810;DHT22;4944;52.514;13.192;2022-08-01T13:36:33;24.70;99.90
9810;DHT22;4944;52.514;13.192;2022-08-01T13:39:01;24.60;99.90
9810;DHT22;4944;52.514;13.192;2022-08-01T13:41:46;24.60;99.90
9810;DHT22;4944;52.514;13.192;2022-08-01T13:44:14;24.80;99.90
9810;DHT22;4944;52.514;13.192;2022-08-01T13:46:42;25.00;99.90
9810;DHT22;4944;52.514;13.192;2022-08-01T13:49:10;25.20;99.90
9810;DHT22;4944;52.514;13.192;2022-08-01T13:51:39;25.30;99.90
9810;DHT22;4944;52.514;13.192;2022-08-01T13:54:06;25.30;99.90
9810;DHT22;4944;52.514;13.192;2022-08-01T13:56:33;25.30;99.90
9810;DHT22;4944;52.514;13.192;2022-08-01T13:59:00;25.20;99.90
9810;DHT22;4944;52.514;13.192;2022-08-01T14:01:26;25.00;99.90
9810;DHT22;4944;52.514;13.192;2022-08-01T14:03:53;25.00;99.90
9810;DHT22;4944;52.514;13.192;2022-08-01T14:06:21;24.90;99.90
9810;DHT22;4944;52.514;13.192;2022-08-01T14:08:49;24.80;99.90
9810;DHT22;4944;52.514;13.192;2022-08-01T14:11:16;24.80;99.90
9810;DHT22;4944;52.514;13.192;2022-08-01T14:13:43;24.90;99.90
9810;DHT22;4944;52.514;13.192;2022-08-01T14:16:10;24.90;99.90
9810;DHT22;4944;52.514;13.192;2022-08-01T14:18:37;25.00;99.90
9810;DHT22;4944;52.514;13.192;2022-08-01T14:21:06;25.10;99.90
9810;DHT22;4944;52.514;13.192;2022-08-01T14:23:33;25.20;99.90
9810;DHT22;4944;52.514;13.192;2022-08-01T14:26:01;25.10;99.90
9810;DHT22;4944;52.514;13.192;2022-08-01T14:28:31;25.20;99.90
9810;DHT22;4944;52.514;13.192;2022-08-01T14:30:59;25.10;99.90
9810;DHT22;4944;52.514;13.192;2022-08-01T14:33:25;25.20;99.90
9810;DHT22;4944;52.514;13.192;2022-08-01T14:35:53;25.20;99.90
9810;DHT22;4944;52.514;13.192;2022-08-01T14:38:19;25.40;99.90
9810;DHT22;4944;52.514;13.192;2022-08-01T14:40:46;25.60;99.90
9810;DHT22;4944;52.514;13.192;2022-08-01T14:43:18;25.90;99.90
9810;DHT22;4944;52.514;13.192;2022-08-01T14:45:45;26.30;99.90
9810;DHT22;4944;52.514;13.192;2022-08-01T14:48:14;26.50;99.90
9810;DHT22;4944;52.514;13.192;2022-08-01T14:50:41;26.60;99.90
9810;DHT22;4944;52.514;13.192;2022-08-01T14:53:08;26.50;99.90
9810;DHT22;4944;52.514;13.192;2022-08-01T14:55:35;26.40;99.90
9810;DHT22;4944;52.514;13.192;2022-08-01T14:58:02;26.20;99.90
9810;DHT22;4944;52.514;13.192;2022-08-01T15:00:30;26.00;99.90
9810;DHT22;4944;52.514;13.192;2022-08-01T15:02:57;25.80;99.90
9810;DHT22;4944;52.514;13.192;2022-08-01T15:05:23;25.60;99.90
9810;DHT22;4944;52.514;13.192;2022-08-01T15:07:50;25.60;99.90
9810;DHT22;4944;52.514;13.192;2022-08-01T15:10:17;25.40;99.90
9810;DHT22;4944;52.514;13.192;2022-08-01T15:12:44;25.40;99.90
9810;DHT22;4944;52.514;13.192;2022-08-01T15:15:11;25.40;99.90
9810;DHT22;4944;52.514;13.192;2022-08-01T15:17:39;25.30;99.90
9810;DHT22;4944;52.514;13.192;2022-08-01T15:20:06;25.30;99.90
9810;DHT22;4944;52.514;13.192;2022-08-01T15:22:34;25.30;99.90
9810;DHT22;4944;52.514;13.192;2022-08-01T15:25:02;25.40;99.90
9810;DHT22;4944;52.514;13.192;2022-08-01T15:27:29;25.60;99.90
9810;DHT22;4944;52.514;13.192;2022-08-01T15:29:56;26.00;99.90
9810;DHT22;4944;52.514;13.192;2022-08-01T15:32:23;26.30;99.90
9810;DHT22;4944;52.514;13.192;2022-08-01T15:34:51;26.30;99.90
9810;DHT22;4944;52.514;13.192;2022-08-01T15:37:18;26.40;99.90
9810;DHT22;4944;52.514;13.192;2022-08-01T15:39:45;26.50;99.90
9810;DHT22;4944;52.514;13.192;2022-08-01T15:42:14;26.70;99.90
9810;DHT22;4944;52.514;13.192;2022-08-01T15:44:41;26.80;99.90
9810;DHT22;4944;52.514;13.192;2022-08-01T15:47:09;27.00;99.90
9810;DHT22;4944;52.514;13.192;2022-08-01T15:49:38;27.10;99.90
9810;DHT22;4944;52.514;13.192;2022-08-01T15:52:07;27.00;99.90
9810;DHT22;4944;52.514;13.192;2022-08-01T15:54:34;26.80;99.90
9810;DHT22;4944;52.514;13.192;2022-08-01T15:57:02;26.70;99.90
9810;DHT22;4944;52.514;13.192;2022-08-01T15:59:28;26.50;99.90
9810;DHT22;4944;52.514;13.192;2022-08-01T16:01:55;26.40;99.90
9810;DHT22;4944;52.514;13.192;2022-08-01T16:04:22;26.20;99.90
9810;DHT22;4944;52.514;13.192;2022-08-01T16:06:49;26.10;99.90
9810;DHT22;4944;52.514;13.192;2022-08-01T16:09:17;26.00;99.90
9810;DHT22;4944;52.514;13.192;2022-08-01T16:11:44;25.90;99.90
9810;DHT22;4944;52.514;13.192;2022-08-01T16:14:11;25.80;99.90
9810;DHT22;4944;52.514;13.192;2022-08-01T16:16:38;25.70;99.90
9810;DHT22;4944;52.514;13.192;2022-08-01T16:19:04;25.70;99.90